Parks, Arizona
Current Conditions -  °F | °C
As of 11:57 AM on Thursday 27 Nov 2014 (Local Time) from KFLG Reporting Station
Clear Clear  
Wind Chill: 58°   Ceiling: Unl
Heat Index: 58°   Visibility: 10mi
Dew Point: 15°   Wind: 7mph
Humidity: 19%   Direction: 30°NNE
Pressure: 30.45"   Gusts: NA
Location:  35.26°N, 111.95°W
Report Text: KFLG 271857Z 03006KT 10SM CLR 14/M09 A3045 RMK AO2 SLP275 T01441094
Loading
Personal Weather Stations






























Interactive Weather Map New forecast layout! Learn more

10-Day Weather Forecast

Advertisements
Track Severe Weather on mobile